createdAt,value
2022-10-08T00:01:51.002Z,9.10
2022-10-08T00:04:21.085Z,19.35
2022-10-08T00:06:51.196Z,18.00
2022-10-08T00:09:22.170Z,18.33
2022-10-08T00:11:50.628Z,18.40
2022-10-08T00:14:19.217Z,15.63
2022-10-08T00:16:47.832Z,15.68
2022-10-08T00:19:17.111Z,12.70
2022-10-08T00:21:47.918Z,14.13
2022-10-08T00:24:21.380Z,14.38
2022-10-08T00:26:50.142Z,12.63
2022-10-08T00:29:21.810Z,11.85
2022-10-08T00:31:51.880Z,10.50
2022-10-08T00:34:23.123Z,11.13
2022-10-08T00:36:54.856Z,9.52
2022-10-08T00:39:25.226Z,8.45
2022-10-08T00:41:57.611Z,9.77
2022-10-08T00:44:54.348Z,9.15
2022-10-08T00:47:36.761Z,8.98
2022-10-08T00:50:10.705Z,8.80
2022-10-08T00:52:45.806Z,8.32
2022-10-08T00:55:16.643Z,8.07
2022-10-08T00:57:48.195Z,7.68
2022-10-08T01:00:21.795Z,8.13
2022-10-08T01:02:50.542Z,8.52
2022-10-08T01:05:26.419Z,7.78
2022-10-08T01:08:02.097Z,7.93
2022-10-08T01:10:37.204Z,7.65
2022-10-08T01:13:18.488Z,7.45
2022-10-08T01:15:52.718Z,7.47
2022-10-08T01:18:28.066Z,7.28
2022-10-08T01:21:06.826Z,7.13
2022-10-08T01:24:05.070Z,8.23
2022-10-08T01:26:47.440Z,6.97
2022-10-08T01:29:23.091Z,7.10
2022-10-08T01:31:56.880Z,7.57
2022-10-08T01:34:30.030Z,7.15
2022-10-08T01:39:35.746Z,6.78
2022-10-08T01:42:07.054Z,7.18
2022-10-08T01:44:43.159Z,7.75
2022-10-08T01:47:15.242Z,7.57
2022-10-08T01:49:48.774Z,7.90
2022-10-08T01:52:23.275Z,8.30
2022-10-08T01:54:56.825Z,7.50
2022-10-08T01:57:27.415Z,7.63
2022-10-08T02:00:01.454Z,7.95
2022-10-08T02:02:31.476Z,7.68
2022-10-08T02:05:01.326Z,7.30
2022-10-08T02:07:33.191Z,7.95
2022-10-08T02:10:07.384Z,8.10
2022-10-08T02:12:36.365Z,8.40
2022-10-08T02:15:08.710Z,8.25
2022-10-08T02:17:41.657Z,7.88
2022-10-08T02:20:18.809Z,8.85
2022-10-08T02:22:55.736Z,8.60
2022-10-08T02:25:30.991Z,8.85
2022-10-08T02:28:12.886Z,7.93
2022-10-08T02:30:50.296Z,7.53
2022-10-08T02:33:27.108Z,8.43
2022-10-08T02:35:59.774Z,7.75
2022-10-08T02:38:39.872Z,7.88
2022-10-08T02:41:10.533Z,7.97
2022-10-08T02:43:46.637Z,7.95
2022-10-08T02:46:19.773Z,7.80
2022-10-08T02:51:24.200Z,7.70
2022-10-08T02:53:53.013Z,8.07
2022-10-08T02:56:26.529Z,7.78
2022-10-08T02:58:57.439Z,7.80
2022-10-08T03:01:38.758Z,7.32
2022-10-08T03:04:11.291Z,6.93
2022-10-08T03:06:40.567Z,8.30
2022-10-08T03:09:11.995Z,7.50
2022-10-08T03:11:41.231Z,7.75
2022-10-08T03:14:13.860Z,7.28
2022-10-08T03:16:45.349Z,7.65
2022-10-08T03:19:16.197Z,6.82
2022-10-08T03:21:46.733Z,7.28
2022-10-08T03:24:17.734Z,7.70
2022-10-08T03:26:46.372Z,7.40
2022-10-08T03:29:17.184Z,7.63
2022-10-08T03:31:50.907Z,7.68
2022-10-08T03:34:20.767Z,7.22
2022-10-08T03:36:49.584Z,7.13
2022-10-08T03:39:20.792Z,7.35
2022-10-08T03:41:49.057Z,7.00
2022-10-08T03:44:18.294Z,6.45
2022-10-08T03:46:47.419Z,6.72
2022-10-08T03:49:17.918Z,6.57
2022-10-08T03:51:46.223Z,6.53
2022-10-08T03:54:15.010Z,6.78
2022-10-08T03:56:46.085Z,6.47
2022-10-08T03:59:14.836Z,6.90
2022-10-08T04:01:46.504Z,6.20
2022-10-08T04:04:16.589Z,6.43
2022-10-08T04:06:45.337Z,6.85
2022-10-08T04:09:14.222Z,7.45
2022-10-08T04:11:43.174Z,7.20
2022-10-08T04:14:11.993Z,6.85
2022-10-08T04:16:40.648Z,7.30
2022-10-08T04:19:13.176Z,7.38
2022-10-08T04:21:44.172Z,7.10
2022-10-08T04:24:12.924Z,7.25
2022-10-08T04:26:46.939Z,7.35
2022-10-08T04:29:16.418Z,7.13
2022-10-08T04:31:45.017Z,6.55
2022-10-08T04:34:14.048Z,6.65
2022-10-08T04:36:44.404Z,7.25
2022-10-08T04:39:12.919Z,7.35
2022-10-08T04:41:43.929Z,7.43
2022-10-08T04:44:12.437Z,7.13
2022-10-08T04:46:41.660Z,7.00
2022-10-08T04:49:11.117Z,6.57
2022-10-08T04:51:39.747Z,7.47
2022-10-08T04:54:12.436Z,6.95
2022-10-08T04:56:41.498Z,6.40
2022-10-08T04:59:12.990Z,6.30
2022-10-08T05:01:41.724Z,7.18
2022-10-08T05:04:12.279Z,7.60
2022-10-08T05:06:40.803Z,7.00
2022-10-08T05:09:11.366Z,6.88
2022-10-08T05:11:41.019Z,7.70
2022-10-08T05:14:10.177Z,7.72
2022-10-08T05:16:42.372Z,6.78
2022-10-08T05:19:11.068Z,7.00
2022-10-08T05:21:40.547Z,6.85
2022-10-08T05:24:14.805Z,7.55
2022-10-08T05:26:59.298Z,7.25
2022-10-08T05:29:31.168Z,7.75
2022-10-08T05:32:05.331Z,7.63
2022-10-08T05:34:34.467Z,7.25
2022-10-08T05:37:02.966Z,7.68
2022-10-08T05:39:32.464Z,7.30
2022-10-08T05:42:00.843Z,7.65
2022-10-08T05:44:37.734Z,7.90
2022-10-08T05:47:09.614Z,6.65
2022-10-08T05:49:46.656Z,7.00
2022-10-08T05:52:42.119Z,6.88
2022-10-08T05:55:35.525Z,7.00
2022-10-08T06:01:10.933Z,7.72
2022-10-08T06:03:44.513Z,7.38
2022-10-08T06:06:29.611Z,6.47
2022-10-08T06:09:05.339Z,7.18
2022-10-08T06:11:48.125Z,7.20
2022-10-08T06:14:19.436Z,6.68
2022-10-08T06:16:53.841Z,7.00
2022-10-08T06:19:22.817Z,7.25
2022-10-08T06:21:59.084Z,6.18
2022-10-08T06:24:31.160Z,6.35
2022-10-08T06:27:08.023Z,7.13
2022-10-08T06:29:42.309Z,8.25
2022-10-08T06:32:13.276Z,7.60
2022-10-08T06:34:42.657Z,8.00
2022-10-08T06:37:13.524Z,6.63
2022-10-08T06:39:46.192Z,6.38
2022-10-08T06:42:18.255Z,5.65
2022-10-08T06:44:47.253Z,5.43
2022-10-08T06:47:16.893Z,5.38
2022-10-08T06:49:46.114Z,5.32
2022-10-08T06:52:17.629Z,4.88
2022-10-08T06:54:46.119Z,4.53
2022-10-08T06:57:16.783Z,4.85
2022-10-08T06:59:49.536Z,4.55
2022-10-08T07:02:17.704Z,4.13
2022-10-08T07:04:46.426Z,4.93
2022-10-08T07:07:15.823Z,3.80
2022-10-08T07:09:44.297Z,4.32
2022-10-08T07:12:12.831Z,4.07
2022-10-08T07:14:42.397Z,4.20
2022-10-08T07:17:12.316Z,4.05
2022-10-08T07:19:42.297Z,4.72
2022-10-08T07:22:10.390Z,5.13
2022-10-08T07:24:39.306Z,4.75
2022-10-08T07:27:09.394Z,4.18
2022-10-08T07:29:37.700Z,5.03
2022-10-08T07:32:06.322Z,4.28
2022-10-08T07:34:39.856Z,3.47
2022-10-08T07:37:09.156Z,3.78
2022-10-08T07:39:38.996Z,4.10
2022-10-08T07:42:07.866Z,4.10
2022-10-08T07:44:36.024Z,3.80
2022-10-08T07:47:04.107Z,4.35
2022-10-08T07:49:32.277Z,4.47
2022-10-08T07:52:02.550Z,7.03
2022-10-08T07:54:31.064Z,3.40
2022-10-08T07:57:05.012Z,3.35
2022-10-08T07:59:37.439Z,5.10
2022-10-08T08:02:05.947Z,3.45
2022-10-08T08:04:36.241Z,4.03
2022-10-08T08:07:06.569Z,3.40
2022-10-08T08:09:35.233Z,3.72
2022-10-08T08:12:03.837Z,3.10
2022-10-08T08:14:35.404Z,3.03
2022-10-08T08:17:03.605Z,3.08
2022-10-08T08:19:37.331Z,3.10
2022-10-08T08:22:08.301Z,3.53
2022-10-08T08:24:36.980Z,2.88
2022-10-08T08:27:06.304Z,3.10
2022-10-08T08:29:36.252Z,2.95
2022-10-08T08:32:06.968Z,2.30
2022-10-08T08:34:35.645Z,2.55
2022-10-08T08:37:04.412Z,2.70
2022-10-08T08:39:34.608Z,2.75
2022-10-08T08:42:23.703Z,2.60
2022-10-08T08:45:00.543Z,3.15
2022-10-08T08:47:34.973Z,3.65
2022-10-08T08:50:09.826Z,3.17
2022-10-08T08:52:42.900Z,2.83
2022-10-08T08:57:56.116Z,2.20
2022-10-08T09:00:30.018Z,2.10
2022-10-08T09:03:03.598Z,1.75
2022-10-08T09:05:35.154Z,2.63
2022-10-08T09:08:11.378Z,2.25
2022-10-08T09:10:47.529Z,1.70
2022-10-08T09:13:21.305Z,1.83
2022-10-08T09:15:49.875Z,1.50
2022-10-08T09:18:18.712Z,1.52
2022-10-08T09:20:49.540Z,1.90
2022-10-08T09:23:20.851Z,1.80
2022-10-08T09:25:56.150Z,1.80
2022-10-08T09:28:46.102Z,1.45
2022-10-08T09:31:23.000Z,1.67
2022-10-08T09:34:06.788Z,1.60
2022-10-08T09:36:40.024Z,1.98
2022-10-08T09:39:19.118Z,1.75
2022-10-08T09:42:05.931Z,1.45
2022-10-08T09:44:41.779Z,1.73
2022-10-08T09:47:20.759Z,1.80
2022-10-08T09:50:03.996Z,1.73
2022-10-08T09:52:35.175Z,2.10
2022-10-08T09:55:30.501Z,1.60
2022-10-08T09:58:06.447Z,2.03
2022-10-08T10:00:43.811Z,1.48
2022-10-08T10:03:20.644Z,1.27
2022-10-08T10:05:53.043Z,1.30
2022-10-08T10:08:46.696Z,2.08
2022-10-08T10:11:20.227Z,1.00
2022-10-08T10:13:53.114Z,0.85
2022-10-08T10:19:04.657Z,1.15
2022-10-08T10:21:45.690Z,1.10
2022-10-08T10:24:37.541Z,1.10
2022-10-08T10:27:14.926Z,0.90
2022-10-08T10:29:55.146Z,1.50
2022-10-08T10:32:32.388Z,0.60
2022-10-08T10:35:08.671Z,0.98
2022-10-08T10:37:45.146Z,0.80
2022-10-08T10:40:30.655Z,0.85
2022-10-08T10:43:28.613Z,1.27
2022-10-08T10:46:10.642Z,0.85
2022-10-08T10:48:40.490Z,0.93
2022-10-08T10:51:59.675Z,3.45
2022-10-08T10:54:44.451Z,1.52
2022-10-08T10:57:21.987Z,1.05
2022-10-08T11:00:02.529Z,1.13
2022-10-08T11:02:39.857Z,0.80
2022-10-08T11:05:17.107Z,0.88
2022-10-08T11:08:09.594Z,0.70
2022-10-08T11:10:57.621Z,0.82
2022-10-08T11:13:52.885Z,1.20
2022-10-08T11:16:33.027Z,0.70
2022-10-08T11:19:06.659Z,0.90
2022-10-08T11:21:59.369Z,1.08
2022-10-08T11:24:51.434Z,1.30
2022-10-08T11:27:29.341Z,0.90
2022-10-08T11:30:07.588Z,0.57
2022-10-08T11:32:40.127Z,0.63
2022-10-08T11:35:25.530Z,0.60
2022-10-08T11:38:00.795Z,0.80
2022-10-08T11:40:38.049Z,0.82
2022-10-08T11:43:14.797Z,0.60
2022-10-08T11:45:46.334Z,0.80
2022-10-08T11:48:34.651Z,0.50
2022-10-08T11:51:39.747Z,0.35
2022-10-08T11:54:17.821Z,0.73
2022-10-08T11:56:48.708Z,0.45
2022-10-08T11:59:40.674Z,0.50
2022-10-08T12:02:23.691Z,0.55
2022-10-08T12:04:54.043Z,0.65
2022-10-08T12:07:29.897Z,1.27
2022-10-08T12:10:27.515Z,1.38
2022-10-08T12:13:23.185Z,1.05
2022-10-08T12:16:05.286Z,1.38
2022-10-08T12:18:51.460Z,2.10
2022-10-08T12:21:51.332Z,2.53
2022-10-08T12:24:57.561Z,1.83
2022-10-08T12:27:40.361Z,2.40
2022-10-08T12:30:14.546Z,1.95
2022-10-08T12:33:03.738Z,1.80
2022-10-08T12:35:35.054Z,1.58
2022-10-08T12:38:14.057Z,2.08
2022-10-08T12:40:48.433Z,1.60
2022-10-08T12:43:23.903Z,1.20
2022-10-08T12:46:01.015Z,1.50
2022-10-08T12:48:37.795Z,1.17
2022-10-08T12:51:23.022Z,1.83
2022-10-08T12:53:51.855Z,1.27
2022-10-08T12:56:26.466Z,3.10
2022-10-08T12:58:58.663Z,1.42
2022-10-08T13:01:27.537Z,1.80
2022-10-08T13:04:20.689Z,2.10
2022-10-08T13:06:49.825Z,1.20
2022-10-08T13:09:27.770Z,1.27
2022-10-08T13:12:03.252Z,1.50
2022-10-08T13:14:33.710Z,1.73
2022-10-08T13:17:02.324Z,1.50
2022-10-08T13:19:45.505Z,1.90
2022-10-08T13:22:33.362Z,2.10
2022-10-08T13:25:05.606Z,2.00
2022-10-08T13:27:36.063Z,1.30
2022-10-08T13:30:28.214Z,1.38
2022-10-08T13:33:04.271Z,2.15
2022-10-08T13:35:35.387Z,1.70
2022-10-08T13:38:08.595Z,2.47
2022-10-08T13:41:00.993Z,1.50
2022-10-08T13:43:31.669Z,1.83
2022-10-08T13:46:05.711Z,2.10
2022-10-08T13:48:47.655Z,2.88
2022-10-08T13:51:34.088Z,3.58
2022-10-08T13:54:02.661Z,2.30
2022-10-08T13:56:31.202Z,1.60
2022-10-08T13:59:08.014Z,1.52
2022-10-08T14:01:36.989Z,1.42
2022-10-08T14:04:05.951Z,1.52
2022-10-08T14:06:35.074Z,1.70
2022-10-08T14:09:08.255Z,1.60
2022-10-08T14:11:42.553Z,2.03
2022-10-08T14:14:16.357Z,1.60
2022-10-08T14:16:44.793Z,1.60
2022-10-08T14:19:13.402Z,2.40
2022-10-08T14:21:42.614Z,2.55
2022-10-08T14:24:12.287Z,1.90
2022-10-08T14:26:43.049Z,1.75
2022-10-08T14:29:16.064Z,2.00
2022-10-08T14:31:44.369Z,1.52
2022-10-08T14:34:12.367Z,1.70
2022-10-08T14:36:43.000Z,1.40
2022-10-08T14:39:12.215Z,1.80
2022-10-08T14:41:42.052Z,3.25
2022-10-08T14:44:10.008Z,2.03
2022-10-08T14:46:39.662Z,1.70
2022-10-08T14:49:08.267Z,1.60
2022-10-08T14:51:38.814Z,1.50
2022-10-08T14:54:07.472Z,1.50
2022-10-08T14:56:37.639Z,1.48
2022-10-08T14:59:06.111Z,1.77
2022-10-08T15:01:34.483Z,1.75
2022-10-08T15:04:04.654Z,1.80
2022-10-08T15:06:33.570Z,2.60
2022-10-08T15:09:01.605Z,1.83
2022-10-08T15:11:29.697Z,1.38
2022-10-08T15:13:59.359Z,1.60
2022-10-08T15:16:27.573Z,1.50
2022-10-08T15:18:55.988Z,1.75
2022-10-08T15:21:25.279Z,2.15
2022-10-08T15:23:56.008Z,3.65
2022-10-08T15:26:24.312Z,3.53
2022-10-08T15:28:53.902Z,2.22
2022-10-08T15:31:26.902Z,1.80
2022-10-08T15:33:57.364Z,1.50
2022-10-08T15:36:28.623Z,3.10
2022-10-08T15:38:58.372Z,1.90
2022-10-08T15:41:27.599Z,1.92
2022-10-08T15:43:56.279Z,2.13
2022-10-08T15:46:28.891Z,1.60
2022-10-08T15:48:58.306Z,1.30
2022-10-08T15:51:27.577Z,2.40
2022-10-08T15:53:56.501Z,2.50
2022-10-08T15:56:25.527Z,2.15
2022-10-08T15:58:53.821Z,1.45
2022-10-08T16:01:24.727Z,1.55
2022-10-08T16:03:55.712Z,1.88
2022-10-08T16:06:25.135Z,1.88
2022-10-08T16:08:57.053Z,2.08
2022-10-08T16:11:26.812Z,4.03
2022-10-08T16:13:57.442Z,7.35
2022-10-08T16:16:25.827Z,5.80
2022-10-08T16:18:57.404Z,6.72
2022-10-08T16:21:26.559Z,6.25
2022-10-08T16:23:56.200Z,4.05
2022-10-08T16:26:24.125Z,3.08
2022-10-08T16:28:55.524Z,3.10
2022-10-08T16:31:24.988Z,3.17
2022-10-08T16:33:57.527Z,2.83
2022-10-08T16:36:27.064Z,3.00
2022-10-08T16:38:57.590Z,3.30
2022-10-08T16:41:28.263Z,2.92
2022-10-08T16:44:06.485Z,3.67
2022-10-08T16:46:41.614Z,2.83
2022-10-08T16:49:19.638Z,2.20
2022-10-08T16:51:52.373Z,1.83
2022-10-08T16:54:22.531Z,2.25
2022-10-08T16:56:53.044Z,2.20
2022-10-08T16:59:24.416Z,2.65
2022-10-08T17:01:57.176Z,2.90
2022-10-08T17:04:28.413Z,3.05
2022-10-08T17:06:57.344Z,3.67
2022-10-08T17:09:31.306Z,4.97
2022-10-08T17:12:01.272Z,4.40
2022-10-08T17:14:31.390Z,4.35
2022-10-08T17:17:01.279Z,4.03
2022-10-08T17:19:36.231Z,5.88
2022-10-08T17:22:05.335Z,4.63
2022-10-08T17:24:41.609Z,3.90
2022-10-08T17:27:13.406Z,4.07
2022-10-08T17:29:43.896Z,3.75
2022-10-08T17:32:22.991Z,4.10
2022-10-08T17:34:52.128Z,4.72
2022-10-08T17:37:21.277Z,4.28
2022-10-08T17:39:56.946Z,3.80
2022-10-08T17:42:28.493Z,4.22
2022-10-08T17:44:58.695Z,4.80
2022-10-08T17:47:45.632Z,4.82
2022-10-08T17:50:15.334Z,4.70
2022-10-08T17:52:43.929Z,11.23
2022-10-08T17:55:16.972Z,6.18
2022-10-08T17:57:45.678Z,4.90
2022-10-08T18:00:15.352Z,5.53
2022-10-08T18:02:45.594Z,7.20
2022-10-08T18:05:15.478Z,6.22
2022-10-08T18:07:44.030Z,6.80
2022-10-08T18:10:14.857Z,6.78
2022-10-08T18:12:43.083Z,6.45
2022-10-08T18:15:12.267Z,5.40
2022-10-08T18:17:40.456Z,11.35
2022-10-08T18:20:09.350Z,21.45
2022-10-08T18:22:50.062Z,17.05
2022-10-08T18:25:19.850Z,12.98
2022-10-08T18:27:50.922Z,12.18
2022-10-08T18:30:19.158Z,14.88
2022-10-08T18:32:47.586Z,11.43
2022-10-08T18:35:16.399Z,11.85
2022-10-08T18:37:46.756Z,7.57
2022-10-08T18:40:16.499Z,6.38
2022-10-08T18:42:46.532Z,7.55
2022-10-08T18:45:15.742Z,8.13
2022-10-08T18:47:43.895Z,8.75
2022-10-08T18:50:12.051Z,8.23
2022-10-08T18:52:42.091Z,7.20
2022-10-08T18:55:11.871Z,6.95
2022-10-08T18:57:42.112Z,5.97
2022-10-08T19:00:15.681Z,7.07
2022-10-08T19:02:44.613Z,6.82
2022-10-08T19:05:13.114Z,10.98
2022-10-08T19:07:42.875Z,10.10
2022-10-08T19:10:14.675Z,7.15
2022-10-08T19:12:43.128Z,5.63
2022-10-08T19:15:13.230Z,10.00
2022-10-08T19:17:42.752Z,11.00
2022-10-08T19:20:11.519Z,9.43
2022-10-08T19:22:40.049Z,11.93
2022-10-08T19:25:09.421Z,9.10
2022-10-08T19:27:38.953Z,6.60
2022-10-08T19:30:08.485Z,7.50
2022-10-08T19:32:38.264Z,8.95
2022-10-08T19:35:07.938Z,8.40
2022-10-08T19:37:37.767Z,7.90
2022-10-08T19:40:09.690Z,6.35
2022-10-08T19:42:38.099Z,6.68
2022-10-08T19:45:07.520Z,5.47
2022-10-08T19:47:37.126Z,5.93
2022-10-08T19:50:10.405Z,9.90
2022-10-08T19:52:47.490Z,10.35
2022-10-08T19:55:18.520Z,9.32
2022-10-08T19:57:47.066Z,9.63
2022-10-08T20:00:16.339Z,7.15
2022-10-08T20:02:46.630Z,6.57
2022-10-08T20:05:14.958Z,6.70
2022-10-08T20:07:43.381Z,7.45
2022-10-08T20:10:12.645Z,6.45
2022-10-08T20:12:41.356Z,5.35
2022-10-08T20:15:13.297Z,5.32
2022-10-08T20:17:41.411Z,5.50
2022-10-08T20:20:31.718Z,5.63
2022-10-08T20:23:00.072Z,5.63
2022-10-08T20:25:28.281Z,7.40
2022-10-08T20:27:56.795Z,8.95
2022-10-08T20:30:27.125Z,7.47
2022-10-08T20:32:55.995Z,7.85
2022-10-08T20:35:25.799Z,7.95
2022-10-08T20:37:53.991Z,12.13
2022-10-08T20:40:22.420Z,21.10
2022-10-08T20:42:51.498Z,9.38
2022-10-08T20:45:19.934Z,7.88
2022-10-08T20:47:48.081Z,6.93
2022-10-08T20:50:16.431Z,6.03
2022-10-08T20:52:48.115Z,5.43
2022-10-08T20:55:16.476Z,6.57
2022-10-08T20:57:44.499Z,5.93
2022-10-08T21:00:14.542Z,6.43
2022-10-08T21:02:42.716Z,9.38
2022-10-08T21:05:11.271Z,8.25
2022-10-08T21:07:40.194Z,6.63
2022-10-08T21:10:13.917Z,7.20
2022-10-08T21:12:42.679Z,7.97
2022-10-08T21:15:12.116Z,7.30
2022-10-08T21:17:40.656Z,7.95
2022-10-08T21:20:09.478Z,8.80
2022-10-08T21:22:39.302Z,9.05
2022-10-08T21:25:10.416Z,9.32
2022-10-08T21:27:38.954Z,9.13
2022-10-08T21:30:07.979Z,8.65
2022-10-08T21:32:36.194Z,9.35
2022-10-08T21:35:05.859Z,11.10
2022-10-08T21:37:34.141Z,8.82
2022-10-08T21:40:02.820Z,9.90
2022-10-08T21:42:32.607Z,9.60
2022-10-08T21:45:00.831Z,11.13
2022-10-08T21:47:29.129Z,11.98
2022-10-08T21:49:58.339Z,11.32
2022-10-08T21:52:26.765Z,11.80
2022-10-08T21:54:55.610Z,15.00
2022-10-08T21:57:26.994Z,17.80
2022-10-08T21:59:58.645Z,15.27
2022-10-08T22:02:28.726Z,16.27
2022-10-08T22:04:58.064Z,16.80
2022-10-08T22:07:26.443Z,14.75
2022-10-08T22:09:54.922Z,13.45
2022-10-08T22:12:23.297Z,13.43
2022-10-08T22:14:51.442Z,12.43
2022-10-08T22:17:23.737Z,13.20
2022-10-08T22:19:51.952Z,11.50
2022-10-08T22:22:21.240Z,11.23
2022-10-08T22:24:50.730Z,13.48
2022-10-08T22:27:19.031Z,14.43
2022-10-08T22:29:47.243Z,10.43
2022-10-08T22:32:15.462Z,8.77
2022-10-08T22:34:47.394Z,9.18
2022-10-08T22:37:15.690Z,9.70
2022-10-08T22:39:44.052Z,11.77
2022-10-08T22:42:13.050Z,12.98
2022-10-08T22:44:41.549Z,14.63
2022-10-08T22:47:12.846Z,14.40
2022-10-08T22:49:41.090Z,13.82
2022-10-08T22:52:11.293Z,13.60
2022-10-08T22:54:39.747Z,17.42
2022-10-08T22:57:08.696Z,11.85
2022-10-08T22:59:37.788Z,12.50
2022-10-08T23:02:08.442Z,11.48
2022-10-08T23:04:37.545Z,11.73
2022-10-08T23:07:06.421Z,10.98
2022-10-08T23:09:36.230Z,10.00
2022-10-08T23:12:05.017Z,10.25
2022-10-08T23:14:33.632Z,10.18
2022-10-08T23:17:02.156Z,8.57
2022-10-08T23:19:30.811Z,9.75
2022-10-08T23:21:59.413Z,8.15
2022-10-08T23:24:29.411Z,7.53
2022-10-08T23:26:58.988Z,8.25
2022-10-08T23:29:27.996Z,8.45
2022-10-08T23:31:56.444Z,7.88
2022-10-08T23:34:25.104Z,8.98
2022-10-08T23:36:54.150Z,8.95
2022-10-08T23:39:22.516Z,9.63
2022-10-08T23:41:53.362Z,10.98
2022-10-08T23:44:23.248Z,10.02
2022-10-08T23:46:51.690Z,8.93
2022-10-08T23:49:20.303Z,8.23
2022-10-08T23:51:48.939Z,8.18
2022-10-08T23:54:17.183Z,7.38
2022-10-08T23:56:45.329Z,7.00
2022-10-08T23:59:13.411Z,7.55
